Aeroporto :
LOGIN :

Iscrizione | Disclaimer

   EN    FR    IT 

 










Sommario :    VFR   VFR Marginale   IFR   IFR Intensivo   IFR Molto Intensivo
Visibilità : 
Base nubi : 
>= 8 km
>= 3000ft
5 / 8 km
1000 / 3000 ft
1500m / 5 km
500 / 1000 ft
800 / 1500m
200 / 500 ft
< 800m
< 200 ft
Simboli :   Temporali  Nebbia  Neve Forte  Precipitazioni Forti  Vento > 20 kt
SIGMETs :   Varie  Temporali  Ghiacco  Turbolenza  Onda orograficha  Ceneri Vulcaniche






- Altitudine del aeroporto : 681 ft
- Codice IATA : OSL


ENGM - Oslo Gardermoen

ULTIMO METAR :
  • 271650Z 29009KT 220V340 CAVOK 16/M03 Q1027 NOSIG

METARs OBSOLETI :
  • 271620Z 29008KT 230V340 CAVOK 17/M03 Q1027 NOSIG
  • 271550Z 32008KT 280V360 CAVOK 17/M01 Q1027 NOSIG
  • 271520Z 31006KT 260V350 CAVOK 15/M02 Q1027 NOSIG
  • 271450Z 31008KT 270V350 CAVOK 16/M02 Q1027 NOSIG
  • 271420Z 34009KT 290V010 CAVOK 16/M01 Q1027 NOSIG

TAF TAF ENGM
Valido dal 27 a 12 ore il 28 a 12 ore UTC


2712/2812 33010KT CAVOK
TEMPO 2712/2717 FEW040CB
BECMG 2719/2721 VRB05KT



MetMap, La meteo Aeronautica in un colpo d'occhio ! - Copyright ORBIFLY Dicembre 2007 - Disclaimer

ORBIFLY MET'MAP TEAM :

Programmazione e sviluppo : Alexandra Zaïnal
Concezione : Baudouin d'Aumeries
Aiuto per la programmazione : Marc-Olivier Méhu
Supporto tecnico e logistico : Manuel Goepfert
Aiuto per la traduzione : Arnaldo La Scala

Contatto : metmap@orbifly.com




FONTI E CREDITI :

   NOAA